Time;durP1;ratioP1;P1;durP2;ratioP2;P2;SDS_P1;SDS_P2;PMS_P1;PMS_P2;Temp;Humidity;BMP_temperature;BMP_pressure;BME280_temperature;BME280_humidity;BME280_pressure;Samples;Min_cycle;Max_cycle;Signal;HPM_P1;HPM_P2
2023/05/29 00:01:28;;;;;;;5.00;4.50;;;;;;;22.00;49.55;100420.13;105961;1294;67688;-86
2023/05/29 00:03:54;;;;;;;5.10;4.60;;;;;;;22.00;49.57;100419.05;105969;1292;67780;-86
2023/05/29 00:06:20;;;;;;;5.70;4.90;;;;;;;22.00;49.54;100415.67;105986;1293;67221;-86
2023/05/29 00:08:45;;;;;;;6.10;4.80;;;;;;;22.00;49.58;100421.88;105930;1293;67877;-86
2023/05/29 00:11:11;;;;;;;7.00;5.00;;;;;;;21.99;49.59;100424.33;106042;1291;68099;-87
2023/05/29 00:13:36;;;;;;;6.40;4.80;;;;;;;21.99;49.64;100424.34;105935;1292;67666;-86
2023/05/29 00:16:03;;;;;;;6.00;4.60;;;;;;;21.99;49.65;100424.17;105977;1294;67101;-86
2023/05/29 00:18:29;;;;;;;6.20;4.60;;;;;;;21.99;49.63;100424.08;105949;1293;67169;-87
2023/05/29 00:20:54;;;;;;;5.10;4.60;;;;;;;21.98;49.78;100423.00;105919;1294;67901;-86
2023/05/29 00:23:20;;;;;;;5.10;4.50;;;;;;;21.98;49.78;100425.11;105941;1294;67712;-87
2023/05/29 00:26:02;;;;;;;5.50;4.80;;;;;;;21.98;49.76;100425.83;105791;1296;68016;-91
2023/05/29 00:28:28;;;;;;;5.50;4.80;;;;;;;21.98;49.79;100430.70;105921;1293;83180;-86
2023/05/29 00:30:53;;;;;;;7.30;5.00;;;;;;;21.97;49.78;100430.91;105920;1293;67840;-86
2023/05/29 00:33:20;;;;;;;5.50;5.00;;;;;;;21.97;49.85;100433.15;105813;1294;67908;-87
2023/05/29 00:35:45;;;;;;;5.30;4.60;;;;;;;21.97;49.96;100432.27;105887;1294;67880;-86
2023/05/29 00:38:11;;;;;;;5.50;4.90;;;;;;;21.97;49.85;100436.94;105926;1293;67601;-87
2023/05/29 00:40:36;;;;;;;5.30;4.80;;;;;;;21.97;49.96;100434.95;105833;1295;67188;-86
2023/05/29 00:43:02;;;;;;;5.30;4.70;;;;;;;21.97;49.99;100436.33;105737;1294;68612;-86
2023/05/29 00:45:28;;;;;;;7.10;5.10;;;;;;;21.97;50.05;100436.44;105936;1294;67970;-86
2023/05/29 00:47:53;;;;;;;5.90;4.80;;;;;;;21.97;50.08;100439.41;105906;1293;67097;-86
2023/05/29 00:50:20;;;;;;;9.10;5.00;;;;;;;21.97;50.09;100439.25;105822;1294;67837;-87
2023/05/29 00:52:45;;;;;;;6.20;4.70;;;;;;;21.96;50.17;100429.31;105911;1294;67930;-86
2023/05/29 00:55:11;;;;;;;5.90;4.90;;;;;;;21.96;50.16;100431.47;105977;1294;68751;-86
2023/05/29 00:57:38;;;;;;;6.00;5.00;;;;;;;21.96;50.21;100429.05;105791;1294;74474;-86
2023/05/29 01:00:13;;;;;;;5.40;4.60;;;;;;;21.95;50.15;100431.05;105706;1297;82998;-86
2023/05/29 01:02:40;;;;;;;8.90;5.40;;;;;;;21.95;50.19;100424.91;105916;1294;72521;-86
2023/05/29 01:05:06;;;;;;;5.40;4.90;;;;;;;21.94;50.21;100419.38;105944;1293;67080;-86
2023/05/29 01:07:44;;;;;;;6.10;5.00;;;;;;;21.94;50.23;100419.89;105885;1294;67874;-86
2023/05/29 01:10:10;;;;;;;7.20;5.30;;;;;;;21.94;50.31;100424.25;105783;1293;74739;-86
2023/05/29 01:12:47;;;;;;;7.00;5.10;;;;;;;21.93;50.34;100423.23;105910;1294;67909;-86
2023/05/29 01:15:20;;;;;;;7.90;5.00;;;;;;;21.93;50.25;100425.42;105929;1293;72406;-86
2023/05/29 01:18:22;;;;;;;5.40;4.90;;;;;;;21.93;50.29;100424.05;105699;1293;67087;-86
2023/05/29 01:20:52;;;;;;;5.80;5.10;;;;;;;21.92;50.38;100420.67;105938;1294;67159;-86
2023/05/29 01:23:42;;;;;;;8.10;5.70;;;;;;;21.92;50.35;100417.59;105932;1294;74124;-87
2023/05/29 01:26:36;;;;;;;5.90;5.40;;;;;;;21.92;50.36;100417.85;105926;1294;82999;-87
2023/05/29 01:29:02;;;;;;;5.80;5.20;;;;;;;21.91;50.33;100421.09;105967;1294;71694;-87
2023/05/29 01:34:11;;;;;;;6.40;5.20;;;;;;;21.90;50.44;100424.73;105924;1292;68633;-86
2023/05/29 01:36:37;;;;;;;5.60;5.00;;;;;;;21.91;50.46;100421.09;105834;1293;68022;-86
2023/05/29 01:39:05;;;;;;;6.00;4.90;;;;;;;21.91;50.41;100422.68;105977;1293;67844;-86
2023/05/29 01:41:30;;;;;;;5.80;5.20;;;;;;;21.91;50.45;100417.45;105960;1292;67740;-86
2023/05/29 01:43:57;;;;;;;7.00;5.50;;;;;;;21.91;50.40;100420.11;105809;1293;68211;-87
2023/05/29 01:46:22;;;;;;;6.30;5.20;;;;;;;21.91;50.49;100419.30;105911;1293;69125;-86
2023/05/29 01:48:48;;;;;;;6.40;5.00;;;;;;;21.91;50.48;100417.86;105827;1295;67932;-86
2023/05/29 01:51:14;;;;;;;6.30;5.40;;;;;;;21.90;50.54;100418.23;106000;1293;67973;-86
2023/05/29 01:53:40;;;;;;;6.90;5.10;;;;;;;21.91;50.53;100417.45;105881;1297;67210;-86
2023/05/29 01:56:06;;;;;;;7.00;5.20;;;;;;;21.90;50.54;100415.41;105841;1293;67733;-87
2023/05/29 01:58:40;;;;;;;7.60;5.30;;;;;;;21.90;50.38;100412.45;105978;1293;67878;-91
2023/05/29 02:01:06;;;;;;;7.00;5.20;;;;;;;21.90;50.47;100411.72;105942;1292;85816;-86
2023/05/29 02:03:32;;;;;;;6.60;5.40;;;;;;;21.90;50.43;100410.59;105859;1292;67853;-86
2023/05/29 02:05:58;;;;;;;8.80;5.40;;;;;;;21.89;50.49;100404.35;105723;1295;68596;-86
2023/05/29 02:08:24;;;;;;;7.40;5.20;;;;;;;21.89;50.49;100401.33;105990;1293;67871;-86
2023/05/29 02:10:49;;;;;;;5.60;4.90;;;;;;;21.89;50.50;100406.81;105979;1293;68644;-87
2023/05/29 02:13:15;;;;;;;6.30;5.10;;;;;;;21.89;50.63;100405.12;105946;1294;68517;-86
2023/05/29 02:15:41;;;;;;;5.90;5.20;;;;;;;21.89;50.54;100408.25;105887;1294;67188;-86
2023/05/29 02:18:11;;;;;;;8.60;5.40;;;;;;;21.89;50.55;100409.48;105954;1294;68504;-86
2023/05/29 02:20:37;;;;;;;9.00;5.40;;;;;;;21.89;50.57;100410.86;105987;1293;74561;-86
2023/05/29 02:23:03;;;;;;;5.80;4.90;;;;;;;21.88;50.64;100405.29;105997;1293;67722;-86
2023/05/29 02:25:31;;;;;;;6.90;5.50;;;;;;;21.88;50.51;100407.42;105980;1292;67810;-92
2023/05/29 02:27:57;;;;;;;6.60;4.90;;;;;;;21.88;50.50;100404.92;105961;1292;67704;-86
2023/05/29 02:30:22;;;;;;;7.50;5.30;;;;;;;21.88;50.50;100404.52;106051;1293;68531;-86
2023/05/29 02:32:48;;;;;;;6.00;5.10;;;;;;;21.87;50.53;100401.70;106002;1293;67833;-86
2023/05/29 02:35:15;;;;;;;6.70;5.40;;;;;;;21.87;50.63;100399.03;105969;1292;68446;-86
2023/05/29 02:37:41;;;;;;;6.40;4.90;;;;;;;21.87;50.59;100404.51;105877;1292;67829;-87
2023/05/29 02:40:08;;;;;;;10.40;5.20;;;;;;;21.87;50.61;100404.94;105978;1292;67805;-87
2023/05/29 02:42:33;;;;;;;6.40;5.00;;;;;;;21.87;50.57;100404.36;105933;1293;69107;-86
2023/05/29 02:44:59;;;;;;;6.00;5.20;;;;;;;21.87;50.59;100410.52;106066;1292;68847;-86
2023/05/29 02:47:24;;;;;;;5.40;4.90;;;;;;;21.87;50.53;100414.15;106082;1293;67849;-86
2023/05/29 02:49:50;;;;;;;8.20;5.20;;;;;;;21.86;50.59;100413.39;106118;1293;68565;-87
2023/05/29 02:52:24;;;;;;;4.40;3.70;;;;;;;21.86;50.55;100413.94;106218;1292;67678;-89
2023/05/29 02:54:50;;;;;;;10.70;4.20;;;;;;;21.87;50.53;100414.41;106236;1293;75437;-86
2023/05/29 02:57:15;;;;;;;5.70;4.40;;;;;;;21.86;50.28;100415.33;106322;1293;68097;-86
2023/05/29 02:59:41;;;;;;;5.70;5.10;;;;;;;21.85;50.24;100418.55;106099;1293;67935;-86
2023/05/29 03:02:07;;;;;;;11.50;6.40;;;;;;;21.81;50.24;100417.49;105926;1293;68973;-86
2023/05/29 03:04:33;;;;;;;8.50;6.20;;;;;;;21.74;50.39;100418.55;106072;1292;68137;-87
2023/05/29 03:06:58;;;;;;;9.30;6.70;;;;;;;21.70;50.58;100421.02;105972;1293;82908;-86
2023/05/29 03:09:24;;;;;;;11.10;6.20;;;;;;;21.66;50.74;100420.48;105958;1294;67839;-86
2023/05/29 03:11:50;;;;;;;9.60;6.20;;;;;;;21.64;50.70;100421.52;105967;1293;67782;-86
2023/05/29 03:14:16;;;;;;;10.00;6.30;;;;;;;21.62;50.83;100421.15;105997;1293;67863;-87
2023/05/29 03:16:43;;;;;;;9.90;6.20;;;;;;;21.60;51.00;100423.55;106025;1292;67777;-87
2023/05/29 03:21:50;;;;;;;10.50;6.50;;;;;;;21.57;51.14;100424.21;105789;1295;72651;-86
2023/05/29 03:24:15;;;;;;;7.30;5.90;;;;;;;21.56;51.14;100426.92;105842;1296;67054;-86
2023/05/29 03:26:41;;;;;;;9.00;6.00;;;;;;;21.57;51.31;100434.51;105909;1295;68168;-86
2023/05/29 03:29:07;;;;;;;8.50;5.50;;;;;;;21.57;51.11;100432.00;105868;1296;67021;-87
2023/05/29 03:31:32;;;;;;;7.10;5.80;;;;;;;21.58;51.30;100434.10;105703;1297;68004;-87
2023/05/29 03:33:59;;;;;;;11.30;6.30;;;;;;;21.59;51.18;100432.20;105898;1296;67810;-86
2023/05/29 03:36:24;;;;;;;5.90;5.30;;;;;;;21.60;51.18;100431.03;105637;1296;67753;-85
2023/05/29 03:38:50;;;;;;;7.90;5.50;;;;;;;21.60;51.18;100428.52;105812;1296;67914;-87
2023/05/29 03:41:16;;;;;;;8.70;5.70;;;;;;;21.60;51.10;100426.21;106071;1291;67156;-87
2023/05/29 03:43:41;;;;;;;7.90;5.80;;;;;;;21.61;51.11;100429.59;106066;1292;67793;-87
2023/05/29 03:46:16;;;;;;;10.40;9.10;;;;;;;21.61;50.99;100433.19;106242;1294;67987;-89
2023/05/29 03:48:41;;;;;;;13.10;8.80;;;;;;;21.61;51.01;100435.65;105971;1291;75446;-88
2023/05/29 03:51:07;;;;;;;11.30;8.00;;;;;;;21.60;50.91;100436.15;106152;1293;68270;-87
2023/05/29 03:53:33;;;;;;;15.30;12.70;;;;;;;21.60;50.96;100441.38;106040;1292;67353;-88
2023/05/29 03:55:59;;;;;;;23.70;20.50;;;;;;;21.60;51.03;100441.88;106019;1293;67020;-89
2023/05/29 03:58:24;;;;;;;23.10;18.10;;;;;;;21.60;50.84;100442.76;106036;1288;67634;-88
2023/05/29 04:00:50;;;;;;;15.30;13.70;;;;;;;21.61;51.03;100442.55;106025;1293;67812;-88
2023/05/29 04:03:16;;;;;;;17.60;11.80;;;;;;;21.60;51.03;100448.85;105782;1294;73472;-88
2023/05/29 04:05:41;;;;;;;20.60;16.90;;;;;;;21.61;50.84;100450.17;105960;1293;68056;-88
2023/05/29 04:08:08;;;;;;;31.90;24.80;;;;;;;21.61;50.87;100447.05;105910;1296;67569;-88
2023/05/29 04:10:34;;;;;;;24.70;21.80;;;;;;;21.60;50.88;100449.56;106128;1293;67513;-89
2023/05/29 04:15:30;;;;;;;17.30;13.90;;;;;;;21.61;50.89;100458.68;106292;1291;71029;-87
2023/05/29 04:17:55;;;;;;;16.90;13.90;;;;;;;21.61;50.77;100456.53;106378;1292;67080;-88
2023/05/29 04:20:21;;;;;;;18.40;12.20;;;;;;;21.61;50.83;100453.92;106174;1291;67836;-87
2023/05/29 04:22:47;;;;;;;14.50;10.50;;;;;;;21.61;50.76;100454.90;106097;1292;67761;-87
2023/05/29 04:25:12;;;;;;;14.90;9.80;;;;;;;21.61;50.74;100460.38;105888;1286;67679;-86
2023/05/29 04:27:38;;;;;;;9.90;8.20;;;;;;;21.61;50.66;100458.89;106047;1294;68028;-88
2023/05/29 04:30:07;;;;;;;13.60;6.70;;;;;;;21.61;50.65;100456.94;106208;1291;67808;-88
2023/05/29 04:32:34;;;;;;;12.30;7.30;;;;;;;21.60;50.50;100456.83;105981;1291;74423;-88
2023/05/29 04:35:03;;;;;;;9.20;6.70;;;;;;;21.60;50.54;100460.42;106178;1291;67691;-87
2023/05/29 04:37:29;;;;;;;12.80;6.00;;;;;;;21.61;50.49;100461.34;106130;1292;72361;-88
2023/05/29 04:42:24;;;;;;;8.00;6.10;;;;;;;21.63;50.43;100467.35;106551;1290;67331;-87
2023/05/29 04:44:52;;;;;;;8.10;5.70;;;;;;;21.65;50.38;100471.95;106274;1292;68476;-88
2023/05/29 04:47:18;;;;;;;7.10;5.90;;;;;;;21.67;50.46;100475.68;106342;1294;82930;-87
2023/05/29 04:49:48;;;;;;;10.00;5.70;;;;;;;21.68;50.50;100473.88;106331;1293;67772;-86
2023/05/29 04:52:15;;;;;;;12.20;6.30;;;;;;;21.69;50.38;100480.02;106051;1292;67984;-87
2023/05/29 04:57:28;;;;;;;10.00;5.70;;;;;;;21.68;50.16;100482.75;86446;1294;73428;-91
2023/05/29 05:00:19;;;;;;;;;;;;;;;;;;;;;
2023/05/29 05:02:46;;;;;;;14.00;5.50;;;;;;;21.64;50.03;100482.40;105869;1293;71561;-91
2023/05/29 05:05:16;;;;;;;14.70;5.90;;;;;;;21.63;49.94;100479.95;105951;1291;67676;-89
2023/05/29 05:07:42;;;;;;;8.50;5.20;;;;;;;21.64;49.89;100474.92;105948;1292;69010;-88
2023/05/29 05:13:36;;;;;;;10.40;5.10;;;;;;;21.65;49.85;100478.04;106080;1290;81542;-90
2023/05/29 05:16:03;;;;;;;8.30;5.30;;;;;;;21.66;49.81;100481.38;106050;1293;72744;-89
2023/05/29 05:24:35;;;;;;;10.50;5.70;;;;;;;21.71;49.74;100486.06;83647;1319;73714;-89
2023/05/29 05:30:19;;;;;;;7.70;5.50;;;;;;;21.75;49.79;100492.45;106155;1292;72692;-89
2023/05/29 05:38:25;;;;;;;13.30;6.50;;;;;;;21.78;49.51;100493.52;106124;1292;73278;-91
2023/05/29 05:44:12;;;;;;;15.70;6.50;;;;;;;21.79;49.41;100491.83;106100;1291;71809;-91
2023/05/29 05:46:37;;;;;;;15.80;6.80;;;;;;;21.80;49.41;100489.52;105988;1294;67995;-90
2023/05/29 05:51:53;;;;;;;9.80;6.20;;;;;;;21.81;49.33;100489.05;102521;1285;73651;-88
2023/05/29 05:54:28;;;;;;;11.40;5.50;;;;;;;21.81;49.23;100486.48;105658;1297;67957;-88
2023/05/29 05:56:53;;;;;;;8.70;6.00;;;;;;;21.82;49.26;100491.96;105915;1294;72926;-89
2023/05/29 06:05:16;;;;;;;14.30;7.40;;;;;;;21.83;49.28;100494.48;106293;1289;73128;-90
2023/05/29 06:07:42;;;;;;;13.40;7.30;;;;;;;21.84;49.32;100492.89;105842;1291;84629;-89
2023/05/29 06:10:28;;;;;;;15.20;7.30;;;;;;;21.84;49.15;100491.14;106163;1288;67138;-90
2023/05/29 06:13:32;;;;;;;11.90;7.00;;;;;;;21.85;49.19;100489.09;106052;1285;69141;31
2023/05/29 06:16:09;;;;;;;13.30;8.00;;;;;;;21.85;49.17;100486.73;105891;1293;68691;-88
2023/05/29 06:21:02;;;;;;;19.90;10.60;;;;;;;21.86;49.01;100490.02;105912;1295;83084;-89
2023/05/29 06:23:28;;;;;;;21.90;10.10;;;;;;;21.87;48.99;100486.52;105800;1292;68311;-87
2023/05/29 06:25:54;;;;;;;18.00;10.60;;;;;;;21.88;48.88;100486.93;105676;1294;67757;-85
2023/05/29 06:28:19;;;;;;;22.10;10.70;;;;;;;21.89;49.05;100487.09;105728;1295;68992;-87
2023/05/29 06:30:45;;;;;;;21.70;10.50;;;;;;;21.89;48.86;100487.55;105896;1293;68518;-87
2023/05/29 06:33:21;;;;;;;;;;;;;;;;;;;;;
2023/05/29 06:35:47;;;;;;;18.10;9.90;;;;;;;21.90;48.80;100484.92;105996;1291;67763;-87
2023/05/29 06:38:13;;;;;;;14.00;8.70;;;;;;;21.90;48.64;100492.14;105838;1293;67863;-85
2023/05/29 06:40:39;;;;;;;15.60;7.70;;;;;;;21.90;48.68;100489.17;105910;1293;68321;-87
2023/05/29 06:45:48;;;;;;;15.40;7.90;;;;;;;21.91;48.65;100489.16;106161;1285;71567;31
2023/05/29 06:51:09;;;;;;;15.30;7.30;;;;;;;21.92;48.56;100478.86;106354;1288;68343;-86
2023/05/29 06:53:36;;;;;;;15.00;7.30;;;;;;;21.92;48.43;100482.81;106017;1291;76226;-90
2023/05/29 07:02:02;;;;;;;9.90;5.90;;;;;;;21.92;48.20;100473.59;106043;1292;68055;-87
2023/05/29 07:10:55;;;;;;;9.90;5.60;;;;;;;21.95;48.28;100476.92;92062;1294;82082;-91
2023/05/29 07:21:28;;;;;;;12.90;5.20;;;;;;;22.01;48.13;100484.84;84295;1290;73080;-89
2023/05/29 07:23:53;;;;;;;12.10;5.60;;;;;;;22.02;47.97;100490.21;105441;1294;83010;-86
2023/05/29 07:28:52;;;;;;;7.90;5.10;;;;;;;22.04;47.91;100488.24;105713;1291;67843;-86
2023/05/29 07:37:18;;;;;;;10.80;4.80;;;;;;;22.04;47.56;100493.73;99238;1291;1426658;-89
2023/05/29 07:46:42;;;;;;;9.30;4.70;;;;;;;22.01;47.44;100497.59;104185;1291;68150;-84
2023/05/29 07:49:26;;;;;;;8.90;4.60;;;;;;;22.03;47.36;100495.77;105621;1296;77137;-87
2023/05/29 07:55:07;;;;;;;13.40;4.90;;;;;;;22.00;47.24;100496.61;105358;1302;71755;-88
2023/05/29 08:00:50;;;;;;;10.40;4.90;;;;;;;22.02;47.37;100509.98;101114;1296;68250;31
2023/05/29 08:06:47;;;;;;;9.50;5.50;;;;;;;22.03;47.22;100507.66;105626;1296;83030;-91
2023/05/29 08:09:53;;;;;;;13.30;4.80;;;;;;;22.05;47.39;100505.50;105413;1291;71658;31
2023/05/29 08:12:26;;;;;;;13.20;5.40;;;;;;;22.07;47.40;100503.20;105457;1300;67822;-87
2023/05/29 08:21:16;;;;;;;14.70;6.10;;;;;;;22.11;47.45;100511.49;105181;1303;72899;-92
2023/05/29 08:23:42;;;;;;;13.70;6.10;;;;;;;22.12;47.43;100511.64;105058;1302;72533;-88
2023/05/29 08:26:08;;;;;;;17.10;6.10;;;;;;;22.13;47.63;100513.80;105200;1303;67811;-86
2023/05/29 08:28:33;;;;;;;17.00;7.60;;;;;;;22.15;47.54;100508.20;105195;1301;67799;-87
2023/05/29 08:30:59;;;;;;;15.60;7.10;;;;;;;22.14;47.50;100502.09;104766;1303;68408;-88
2023/05/29 08:33:24;;;;;;;12.40;6.90;;;;;;;22.15;47.35;100506.61;105152;1302;68580;-88
2023/05/29 08:35:50;;;;;;;10.20;7.00;;;;;;;22.16;47.37;100504.96;105057;1303;68160;-88
2023/05/29 08:38:17;;;;;;;13.30;6.70;;;;;;;22.16;47.36;100507.41;104750;1302;69048;-86
2023/05/29 08:40:42;;;;;;;15.60;7.00;;;;;;;22.15;47.34;100503.38;104719;1308;68924;-86
2023/05/29 08:43:37;;;;;;;11.70;6.80;;;;;;;22.16;47.31;100500.86;105039;1302;69150;-87
2023/05/29 08:46:02;;;;;;;12.10;6.60;;;;;;;22.15;47.26;100496.30;105016;1307;71356;-85
2023/05/29 08:48:30;;;;;;;15.50;6.90;;;;;;;22.15;47.36;100493.79;104601;1303;69795;-88
2023/05/29 08:51:09;;;;;;;15.40;6.70;;;;;;;22.15;47.28;100499.27;105061;1300;67850;-91
2023/05/29 08:53:35;;;;;;;12.10;7.80;;;;;;;22.17;47.34;100504.23;104815;1303;74415;-86
2023/05/29 08:56:04;;;;;;;14.20;6.40;;;;;;;22.18;47.33;100498.91;105126;1303;67272;-87
2023/05/29 08:58:31;;;;;;;8.70;5.40;;;;;;;22.21;47.50;100500.77;105046;1302;71628;-88
2023/05/29 09:00:57;;;;;;;8.20;5.30;;;;;;;22.24;47.71;100500.36;105282;1300;69038;-88
2023/05/29 09:03:23;;;;;;;5.90;5.10;;;;;;;22.27;47.98;100498.44;105265;1304;68404;-88
2023/05/29 09:11:16;;;;;;;8.10;5.40;;;;;;;22.41;48.39;100493.55;97091;1303;71423;-89
2023/05/29 09:16:43;;;;;;;;;;;;;;;22.45;48.37;100487.35;104908;1295;68077;-86
2023/05/29 09:19:44;;;;;;;12.20;6.50;;;;;;;22.44;48.41;100485.41;105041;1300;67503;-88
2023/05/29 09:25:37;;;;;;;;;;;;;;;;;;;;;
2023/05/29 09:28:43;;;;;;;13.90;8.70;;;;;;;22.46;48.35;100481.82;105692;1296;67904;-90
2023/05/29 09:31:17;;;;;;;16.60;9.50;;;;;;;22.45;48.28;100476.85;105617;1303;67093;-89
2023/05/29 09:33:49;;;;;;;19.50;10.00;;;;;;;22.45;48.17;100466.55;105186;1308;74566;-88
2023/05/29 09:36:25;;;;;;;13.00;9.50;;;;;;;22.44;48.02;100466.45;104629;1302;73960;-87
2023/05/29 09:41:27;;;;;;;18.40;8.70;;;;;;;22.43;47.87;100470.95;105251;1302;68629;-90
2023/05/29 09:43:55;;;;;;;12.40;8.70;;;;;;;22.42;47.82;100476.48;105094;1302;69191;-89
2023/05/29 09:46:34;;;;;;;13.40;7.20;;;;;;;22.42;47.76;100474.38;105316;1300;74899;-90
2023/05/29 09:49:03;;;;;;;11.50;6.50;;;;;;;22.40;47.57;100482.89;105410;1296;74496;-87
2023/05/29 09:51:32;;;;;;;12.60;7.20;;;;;;;22.38;47.44;100478.19;105451;1294;67504;-91
2023/05/29 09:54:00;;;;;;;12.30;7.00;;;;;;;22.38;47.24;100470.36;105522;1300;68772;-89
2023/05/29 09:56:26;;;;;;;11.50;6.30;;;;;;;22.37;47.11;100469.90;105404;1300;67195;-89
2023/05/29 10:04:20;;;;;;;10.60;6.10;;;;;;;22.38;46.84;100451.39;105206;1302;69586;-90
2023/05/29 10:06:46;;;;;;;17.10;6.30;;;;;;;22.41;46.79;100447.16;104946;1302;69263;-87
2023/05/29 10:09:13;;;;;;;11.30;6.10;;;;;;;22.42;46.73;100453.92;104950;1303;69484;-87
2023/05/29 10:11:49;;;;;;;12.80;6.30;;;;;;;22.43;46.76;100451.31;104817;1303;69467;-92
2023/05/29 10:14:17;;;;;;;10.70;6.00;;;;;;;22.43;46.83;100446.75;104746;1302;82950;-88
2023/05/29 10:16:43;;;;;;;14.80;6.30;;;;;;;22.44;46.77;100447.17;104691;1305;73363;-88
2023/05/29 10:19:13;;;;;;;18.00;6.20;;;;;;;22.44;46.78;100446.09;104856;1302;68014;-88
2023/05/29 10:21:40;;;;;;;14.70;6.10;;;;;;;22.47;46.72;100440.69;104514;1303;68476;-88
2023/05/29 10:24:07;;;;;;;11.80;6.10;;;;;;;22.48;46.82;100437.19;104906;1308;73727;-86
2023/05/29 10:29:20;;;;;;;15.10;5.90;;;;;;;22.51;46.77;100441.33;105346;1299;72749;-90
2023/05/29 10:31:49;;;;;;;17.40;6.10;;;;;;;22.50;46.69;100447.34;105371;1300;68351;-87
2023/05/29 10:34:27;;;;;;;13.00;6.20;;;;;;;22.50;46.77;100443.18;105408;1303;69440;-87
2023/05/29 10:37:01;;;;;;;21.20;6.40;;;;;;;22.49;46.80;100445.49;105297;1300;68576;-86
2023/05/29 10:39:27;;;;;;;15.90;5.80;;;;;;;22.50;46.87;100446.30;105191;1301;83969;-87
2023/05/29 10:41:54;;;;;;;14.90;6.00;;;;;;;22.49;46.74;100444.22;105299;1300;68424;-87
2023/05/29 10:47:12;;;;;;;11.90;5.30;;;;;;;22.47;46.64;100433.36;105049;1300;68938;-86
2023/05/29 10:49:37;;;;;;;13.90;5.60;;;;;;;22.45;46.57;100435.31;105122;1302;67337;-86
2023/05/29 10:52:06;;;;;;;10.80;5.80;;;;;;;22.46;46.47;100434.85;105252;1299;68210;-87
2023/05/29 10:54:40;;;;;;;10.90;5.50;;;;;;;22.47;46.54;100441.05;105102;1303;72497;-87
2023/05/29 10:57:06;;;;;;;10.80;5.80;;;;;;;22.50;46.67;100438.01;105473;1299;67346;-87
2023/05/29 10:59:41;;;;;;;11.90;5.60;;;;;;;22.53;46.78;100434.44;105318;1299;68347;-92
2023/05/29 11:02:06;;;;;;;12.40;5.60;;;;;;;22.57;46.82;100432.52;105317;1299;75139;-87
2023/05/29 11:04:32;;;;;;;16.00;5.80;;;;;;;22.60;46.88;100430.51;105208;1300;67773;-86
2023/05/29 11:06:58;;;;;;;18.40;6.40;;;;;;;22.62;46.91;100425.88;105235;1299;67858;-85
2023/05/29 11:09:28;;;;;;;16.50;6.20;;;;;;;22.65;47.04;100420.26;105295;1299;69199;-85
2023/05/29 11:12:35;;;;;;;19.90;6.10;;;;;;;22.68;47.08;100417.36;105171;1299;69016;-85
2023/05/29 11:15:06;;;;;;;14.20;6.30;;;;;;;22.70;47.23;100409.60;105335;1299;74533;-86
2023/05/29 11:17:40;;;;;;;;;;;;;;;22.72;47.22;100416.00;105241;1299;74635;-91
2023/05/29 11:20:08;;;;;;;19.80;5.60;;;;;;;22.70;47.29;100409.20;105117;1302;72540;-85
2023/05/29 11:22:49;;;;;;;14.10;5.60;;;;;;;22.73;47.39;100418.09;105222;1300;67908;-85
2023/05/29 11:25:15;;;;;;;16.50;6.00;;;;;;;22.76;47.37;100413.45;105291;1300;67806;-85
2023/05/29 11:27:44;;;;;;;18.80;5.90;;;;;;;22.77;47.47;100412.25;105159;1300;67155;-86
2023/05/29 11:30:10;;;;;;;10.90;6.10;;;;;;;22.78;47.42;100406.29;105014;1301;74318;-85
2023/05/29 11:32:36;;;;;;;17.30;6.10;;;;;;;22.79;47.18;100401.27;104967;1303;68020;-85
2023/05/29 11:35:08;;;;;;;10.00;5.60;;;;;;;22.78;47.02;100398.55;104969;1300;68515;-86
2023/05/29 11:37:45;;;;;;;13.40;6.00;;;;;;;22.78;46.90;100398.91;105046;1300;68683;-86
2023/05/29 11:40:11;;;;;;;10.50;6.10;;;;;;;22.78;46.85;100403.06;105117;1300;73888;-85
2023/05/29 11:42:45;;;;;;;10.40;6.00;;;;;;;22.79;46.75;100397.33;105184;1302;67385;-86
2023/05/29 11:45:11;;;;;;;11.20;6.00;;;;;;;22.79;46.83;100398.34;105146;1300;68383;-86
2023/05/29 11:47:55;;;;;;;8.90;5.40;;;;;;;22.80;46.88;100399.05;105223;1299;67522;-85
2023/05/29 11:50:31;;;;;;;11.60;5.80;;;;;;;22.83;47.06;100395.23;105354;1300;67343;-92
2023/05/29 11:52:57;;;;;;;14.90;5.70;;;;;;;22.85;47.21;100397.05;105208;1300;67216;-86
2023/05/29 11:55:23;;;;;;;21.10;6.50;;;;;;;22.88;47.51;100390.88;105243;1300;67208;-86
2023/05/29 11:57:50;;;;;;;8.50;5.70;;;;;;;22.90;47.45;100390.86;105109;1300;67907;-85
2023/05/29 12:00:16;;;;;;;8.00;6.10;;;;;;;22.91;47.38;100390.84;105258;1300;68555;-86
2023/05/29 12:02:43;;;;;;;11.20;6.20;;;;;;;22.90;47.17;100390.22;105392;1300;67867;-86
2023/05/29 12:05:08;;;;;;;10.30;6.40;;;;;;;22.90;46.98;100393.98;105252;1300;68037;-85
2023/05/29 12:07:35;;;;;;;9.00;6.10;;;;;;;22.90;46.82;100388.39;105380;1300;67576;-86
2023/05/29 12:10:14;;;;;;;11.10;5.90;;;;;;;22.89;46.55;100380.48;105276;1299;67090;-85
2023/05/29 12:12:40;;;;;;;10.80;6.00;;;;;;;22.88;46.50;100373.33;105084;1300;67986;-86
2023/05/29 12:15:08;;;;;;;16.20;12.10;;;;;;;22.89;46.46;100370.48;105295;1300;67131;-85
2023/05/29 12:20:26;;;;;;;39.20;30.90;;;;;;;22.86;46.06;100377.20;83487;1295;1417823;-89
2023/05/29 12:22:52;;;;;;;41.80;33.00;;;;;;;22.85;45.89;100374.65;105153;1300;69196;-87
2023/05/29 12:25:19;;;;;;;35.40;28.70;;;;;;;22.84;45.88;100374.77;105093;1301;68325;-87
2023/05/29 12:27:46;;;;;;;30.60;24.60;;;;;;;22.83;45.78;100372.60;105232;1300;68654;-88
2023/05/29 12:30:21;;;;;;;29.20;25.50;;;;;;;22.83;45.66;100368.35;105236;1300;68410;-87
2023/05/29 12:32:53;;;;;;;26.40;21.90;;;;;;;22.84;45.60;100359.52;105494;1302;82866;-88
2023/05/29 12:35:29;;;;;;;23.00;19.70;;;;;;;22.83;45.56;100364.95;105265;1303;67690;-90
2023/05/29 12:40:48;;;;;;;17.00;13.50;;;;;;;22.81;45.56;100352.77;105206;1299;67984;-88
2023/05/29 12:43:14;;;;;;;11.30;9.00;;;;;;;22.82;45.68;100355.99;105148;1301;68793;-88
2023/05/29 12:45:40;;;;;;;15.90;12.10;;;;;;;22.86;45.89;100349.35;105043;1301;68154;-89
2023/05/29 12:48:06;;;;;;;18.20;12.00;;;;;;;22.88;45.99;100344.45;105242;1302;67827;-88
2023/05/29 12:50:38;;;;;;;17.00;10.90;;;;;;;22.89;45.98;100346.78;105175;1294;531006;-93
2023/05/29 12:53:19;;;;;;;14.40;11.90;;;;;;;22.90;45.98;100350.63;105391;1305;67855;-92
2023/05/29 12:55:46;;;;;;;13.70;11.00;;;;;;;22.90;45.93;100348.11;105761;1300;67163;-87
2023/05/29 12:58:13;;;;;;;14.00;10.00;;;;;;;22.91;46.06;100347.39;105760;1300;75556;-88
2023/05/29 13:00:43;;;;;;;13.50;9.20;;;;;;;22.91;45.91;100348.51;105673;1300;67070;-87
2023/05/29 13:03:12;;;;;;;10.40;9.30;;;;;;;22.90;46.01;100340.00;105542;1301;67446;-87
2023/05/29 13:05:38;;;;;;;13.40;8.30;;;;;;;22.90;45.96;100345.02;105530;1300;67105;-87
2023/05/29 13:08:13;;;;;;;9.60;8.40;;;;;;;22.90;45.93;100340.11;105383;1300;67686;-91
2023/05/29 13:10:46;;;;;;;8.00;7.10;;;;;;;22.90;45.87;100342.16;105540;1300;74482;-87
2023/05/29 13:13:13;;;;;;;8.70;7.50;;;;;;;22.91;46.19;100334.15;105350;1300;68421;-86
2023/05/29 13:15:40;;;;;;;10.30;7.20;;;;;;;22.94;46.55;100338.73;105284;1301;67652;-87
2023/05/29 13:18:06;;;;;;;9.70;7.30;;;;;;;22.96;46.81;100351.28;105047;1305;68072;-88
2023/05/29 13:20:32;;;;;;;9.90;7.40;;;;;;;22.99;46.99;100347.20;105430;1300;67909;-87
2023/05/29 13:25:37;;;;;;;9.20;7.30;;;;;;;23.03;47.33;100343.11;105377;1300;67798;-87
2023/05/29 13:28:02;;;;;;;10.60;7.30;;;;;;;23.05;47.39;100343.35;105223;1299;67179;-88
2023/05/29 13:30:31;;;;;;;10.80;7.40;;;;;;;23.06;47.37;100343.64;105240;1300;67831;-87
2023/05/29 13:32:56;;;;;;;11.00;6.90;;;;;;;23.08;47.36;100342.80;105206;1299;67229;-87
2023/05/29 13:35:22;;;;;;;9.30;7.10;;;;;;;23.10;47.38;100351.36;105134;1300;67393;-87
2023/05/29 13:37:49;;;;;;;8.00;6.60;;;;;;;23.11;47.59;100345.59;105135;1300;68602;-87
2023/05/29 13:40:14;;;;;;;11.70;7.20;;;;;;;23.14;47.53;100344.85;105158;1300;67849;-87
2023/05/29 13:42:40;;;;;;;10.50;7.50;;;;;;;23.15;47.48;100346.98;105128;1299;68897;-87